sensor_id;sensor_type;location;lat;lon;timestamp;temperature;humidity
72591;SHT31;60625;51.212;5.952;2022-08-18T00:04:20;19.92;79.35
72591;SHT31;60625;51.212;5.952;2022-08-18T00:09:23;19.70;80.19
72591;SHT31;60625;51.212;5.952;2022-08-18T00:14:24;19.57;80.85
72591;SHT31;60625;51.212;5.952;2022-08-18T00:19:25;19.49;81.24
72591;SHT31;60625;51.212;5.952;2022-08-18T00:24:32;19.49;81.29
72591;SHT31;60625;51.212;5.952;2022-08-18T00:29:33;19.52;81.42
72591;SHT31;60625;51.212;5.952;2022-08-18T00:34:33;19.64;81.25
72591;SHT31;60625;51.212;5.952;2022-08-18T00:39:38;19.80;80.73
72591;SHT31;60625;51.212;5.952;2022-08-18T00:44:40;19.90;80.54
72591;SHT31;60625;51.212;5.952;2022-08-18T00:49:41;20.00;80.26
72591;SHT31;60625;51.212;5.952;2022-08-18T00:54:45;20.13;80.00
72591;SHT31;60625;51.212;5.952;2022-08-18T00:59:48;20.27;79.54
72591;SHT31;60625;51.212;5.952;2022-08-18T01:10:08;20.47;78.93
72591;SHT31;60625;51.212;5.952;2022-08-18T01:15:16;20.50;78.79
72591;SHT31;60625;51.212;5.952;2022-08-18T01:20:22;20.58;78.56
72591;SHT31;60625;51.212;5.952;2022-08-18T01:25:52;20.67;78.51
72591;SHT31;60625;51.212;5.952;2022-08-18T01:31:05;20.66;78.50
72591;SHT31;60625;51.212;5.952;2022-08-18T01:36:18;20.61;78.67
72591;SHT31;60625;51.212;5.952;2022-08-18T01:41:22;20.55;78.71
72591;SHT31;60625;51.212;5.952;2022-08-18T01:46:32;20.57;78.70
72591;SHT31;60625;51.212;5.952;2022-08-18T01:51:35;20.57;78.72
72591;SHT31;60625;51.212;5.952;2022-08-18T01:56:40;20.57;78.68
72591;SHT31;60625;51.212;5.952;2022-08-18T02:01:43;20.56;78.75
72591;SHT31;60625;51.212;5.952;2022-08-18T02:06:48;20.59;78.75
72591;SHT31;60625;51.212;5.952;2022-08-18T02:11:52;20.69;78.64
72591;SHT31;60625;51.212;5.952;2022-08-18T02:16:56;20.78;78.39
72591;SHT31;60625;51.212;5.952;2022-08-18T02:22:00;20.89;78.09
72591;SHT31;60625;51.212;5.952;2022-08-18T02:27:02;20.92;78.03
72591;SHT31;60625;51.212;5.952;2022-08-18T02:32:07;20.92;77.93
72591;SHT31;60625;51.212;5.952;2022-08-18T02:37:08;20.89;77.78
72591;SHT31;60625;51.212;5.952;2022-08-18T02:42:12;20.75;78.07
72591;SHT31;60625;51.212;5.952;2022-08-18T02:47:13;20.64;78.28
72591;SHT31;60625;51.212;5.952;2022-08-18T02:52:15;20.60;78.43
72591;SHT31;60625;51.212;5.952;2022-08-18T02:57:16;20.65;78.41
72591;SHT31;60625;51.212;5.952;2022-08-18T03:02:17;20.76;78.19
72591;SHT31;60625;51.212;5.952;2022-08-18T03:07:17;20.77;78.04
72591;SHT31;60625;51.212;5.952;2022-08-18T03:12:18;20.69;78.13
72591;SHT31;60625;51.212;5.952;2022-08-18T03:17:18;20.57;78.49
72591;SHT31;60625;51.212;5.952;2022-08-18T03:22:19;20.53;78.68
72591;SHT31;60625;51.212;5.952;2022-08-18T03:27:19;20.61;78.67
72591;SHT31;60625;51.212;5.952;2022-08-18T03:32:20;20.60;78.64
72591;SHT31;60625;51.212;5.952;2022-08-18T03:37:21;20.61;78.82
72591;SHT31;60625;51.212;5.952;2022-08-18T03:42:22;20.67;78.79
72591;SHT31;60625;51.212;5.952;2022-08-18T03:47:23;20.76;78.68
72591;SHT31;60625;51.212;5.952;2022-08-18T03:52:24;20.83;78.43
72591;SHT31;60625;51.212;5.952;2022-08-18T03:57:26;20.80;78.35
72591;SHT31;60625;51.212;5.952;2022-08-18T04:02:26;20.72;78.47
72591;SHT31;60625;51.212;5.952;2022-08-18T04:07:27;20.59;78.79
72591;SHT31;60625;51.212;5.952;2022-08-18T04:12:30;20.57;78.83
72591;SHT31;60625;51.212;5.952;2022-08-18T04:17:30;20.59;78.82
72591;SHT31;60625;51.212;5.952;2022-08-18T04:22:31;20.64;78.79
72591;SHT31;60625;51.212;5.952;2022-08-18T04:27:33;20.60;78.79
72591;SHT31;60625;51.212;5.952;2022-08-18T04:32:35;20.60;78.84
72591;SHT31;60625;51.212;5.952;2022-08-18T04:37:36;20.57;78.85
72591;SHT31;60625;51.212;5.952;2022-08-18T04:42:37;20.50;78.94
72591;SHT31;60625;51.212;5.952;2022-08-18T04:47:38;20.51;78.94
72591;SHT31;60625;51.212;5.952;2022-08-18T04:52:41;20.51;78.96
72591;SHT31;60625;51.212;5.952;2022-08-18T04:58:01;20.60;78.85
72591;SHT31;60625;51.212;5.952;2022-08-18T05:03:01;20.56;79.07
72591;SHT31;60625;51.212;5.952;2022-08-18T05:08:02;20.56;79.21
72591;SHT31;60625;51.212;5.952;2022-08-18T05:13:03;20.54;79.38
72591;SHT31;60625;51.212;5.952;2022-08-18T05:18:05;20.54;79.33
72591;SHT31;60625;51.212;5.952;2022-08-18T05:23:06;20.53;79.34
72591;SHT31;60625;51.212;5.952;2022-08-18T05:28:08;20.50;79.47
72591;SHT31;60625;51.212;5.952;2022-08-18T05:33:09;20.49;79.65
72591;SHT31;60625;51.212;5.952;2022-08-18T05:43:31;20.56;79.67
72591;SHT31;60625;51.212;5.952;2022-08-18T05:48:34;20.56;79.61
72591;SHT31;60625;51.212;5.952;2022-08-18T05:53:35;20.47;79.82
72591;SHT31;60625;51.212;5.952;2022-08-18T05:58:55;20.45;79.91
72591;SHT31;60625;51.212;5.952;2022-08-18T06:04:01;20.51;79.71
72591;SHT31;60625;51.212;5.952;2022-08-18T06:14:27;20.55;79.43
72591;SHT31;60625;51.212;5.952;2022-08-18T06:19:32;20.74;78.78
72591;SHT31;60625;51.212;5.952;2022-08-18T06:36:19;20.84;78.03
72591;SHT31;60625;51.212;5.952;2022-08-18T06:42:03;20.88;77.82
72591;SHT31;60625;51.212;5.952;2022-08-18T06:47:10;20.96;77.47
72591;SHT31;60625;51.212;5.952;2022-08-18T06:52:36;20.90;77.51
72591;SHT31;60625;51.212;5.952;2022-08-18T06:57:53;20.94;77.63
72591;SHT31;60625;51.212;5.952;2022-08-18T07:13:36;21.34;76.62
72591;SHT31;60625;51.212;5.952;2022-08-18T07:18:40;21.41;76.60
72591;SHT31;60625;51.212;5.952;2022-08-18T07:23:42;21.50;76.18
72591;SHT31;60625;51.212;5.952;2022-08-18T07:28:47;21.60;74.89
72591;SHT31;60625;51.212;5.952;2022-08-18T07:33:58;21.79;73.55
72591;SHT31;60625;51.212;5.952;2022-08-18T07:39:12;22.02;73.74
72591;SHT31;60625;51.212;5.952;2022-08-18T07:50:11;22.16;73.39
72591;SHT31;60625;51.212;5.952;2022-08-18T08:00:23;22.11;72.50
72591;SHT31;60625;51.212;5.952;2022-08-18T08:05:42;22.31;72.18
72591;SHT31;60625;51.212;5.952;2022-08-18T08:16:22;23.06;69.03
72591;SHT31;60625;51.212;5.952;2022-08-18T08:21:59;23.12;67.57
72591;SHT31;60625;51.212;5.952;2022-08-18T08:32:49;23.53;66.61
72591;SHT31;60625;51.212;5.952;2022-08-18T08:38:18;23.75;66.20
72591;SHT31;60625;51.212;5.952;2022-08-18T08:43:29;23.91;65.38
72591;SHT31;60625;51.212;5.952;2022-08-18T08:48:38;23.78;65.60
72591;SHT31;60625;51.212;5.952;2022-08-18T08:53:49;23.80;66.03
72591;SHT31;60625;51.212;5.952;2022-08-18T08:59:06;23.59;66.19
72591;SHT31;60625;51.212;5.952;2022-08-18T09:04:29;23.49;66.46
72591;SHT31;60625;51.212;5.952;2022-08-18T09:09:48;23.57;66.33
72591;SHT31;60625;51.212;5.952;2022-08-18T09:32:51;24.81;63.29
72591;SHT31;60625;51.212;5.952;2022-08-18T09:38:12;24.97;61.96
72591;SHT31;60625;51.212;5.952;2022-08-18T09:43:52;24.78;61.86
72591;SHT31;60625;51.212;5.952;2022-08-18T09:49:58;24.78;61.81
72591;SHT31;60625;51.212;5.952;2022-08-18T10:15:57;24.84;61.08
72591;SHT31;60625;51.212;5.952;2022-08-18T10:26:58;25.09;60.22
72591;SHT31;60625;51.212;5.952;2022-08-18T10:37:11;25.01;60.58
72591;SHT31;60625;51.212;5.952;2022-08-18T10:47:35;25.13;59.67
72591;SHT31;60625;51.212;5.952;2022-08-18T11:09:29;25.22;59.99
72591;SHT31;60625;51.212;5.952;2022-08-18T11:20:17;25.07;59.22
72591;SHT31;60625;51.212;5.952;2022-08-18T11:25:22;25.43;58.86
72591;SHT31;60625;51.212;5.952;2022-08-18T11:30:29;25.85;57.35
72591;SHT31;60625;51.212;5.952;2022-08-18T11:35:57;26.26;56.71
72591;SHT31;60625;51.212;5.952;2022-08-18T11:41:15;26.39;56.23
72591;SHT31;60625;51.212;5.952;2022-08-18T11:46:29;26.24;56.38
72591;SHT31;60625;51.212;5.952;2022-08-18T11:51:51;26.31;56.24
72591;SHT31;60625;51.212;5.952;2022-08-18T12:02:44;26.25;55.94
72591;SHT31;60625;51.212;5.952;2022-08-18T12:07:44;26.07;56.58
72591;SHT31;60625;51.212;5.952;2022-08-18T12:12:46;26.05;56.90
72591;SHT31;60625;51.212;5.952;2022-08-18T12:17:51;26.12;56.94
72591;SHT31;60625;51.212;5.952;2022-08-18T12:22:54;26.24;56.73
72591;SHT31;60625;51.212;5.952;2022-08-18T12:27:56;26.35;56.52
72591;SHT31;60625;51.212;5.952;2022-08-18T12:32:56;26.43;56.13
72591;SHT31;60625;51.212;5.952;2022-08-18T12:37:57;26.44;56.00
72591;SHT31;60625;51.212;5.952;2022-08-18T12:42:57;26.46;55.90
72591;SHT31;60625;51.212;5.952;2022-08-18T12:47:58;26.50;55.81
72591;SHT31;60625;51.212;5.952;2022-08-18T12:53:01;26.51;55.76
72591;SHT31;60625;51.212;5.952;2022-08-18T12:58:02;26.53;55.85
72591;SHT31;60625;51.212;5.952;2022-08-18T13:03:04;26.56;55.94
72591;SHT31;60625;51.212;5.952;2022-08-18T13:08:06;26.56;55.63
72591;SHT31;60625;51.212;5.952;2022-08-18T13:13:16;26.57;55.59
72591;SHT31;60625;51.212;5.952;2022-08-18T13:18:19;26.68;55.31
72591;SHT31;60625;51.212;5.952;2022-08-18T13:23:19;26.76;54.76
72591;SHT31;60625;51.212;5.952;2022-08-18T13:28:20;26.86;54.38
72591;SHT31;60625;51.212;5.952;2022-08-18T13:33:20;27.09;54.13
72591;SHT31;60625;51.212;5.952;2022-08-18T13:38:21;27.29;53.35
72591;SHT31;60625;51.212;5.952;2022-08-18T13:43:31;27.44;52.78
72591;SHT31;60625;51.212;5.952;2022-08-18T13:48:41;27.69;52.94
72591;SHT31;60625;51.212;5.952;2022-08-18T13:53:42;27.63;52.43
72591;SHT31;60625;51.212;5.952;2022-08-18T13:58:43;27.51;52.44
72591;SHT31;60625;51.212;5.952;2022-08-18T14:03:43;27.66;52.27
72591;SHT31;60625;51.212;5.952;2022-08-18T14:08:44;27.79;51.51
72591;SHT31;60625;51.212;5.952;2022-08-18T14:13:45;27.78;51.24
72591;SHT31;60625;51.212;5.952;2022-08-18T14:18:46;27.92;51.13
72591;SHT31;60625;51.212;5.952;2022-08-18T14:24:07;28.11;50.90
72591;SHT31;60625;51.212;5.952;2022-08-18T14:29:37;28.08;50.50
72591;SHT31;60625;51.212;5.952;2022-08-18T14:34:37;27.95;50.77
72591;SHT31;60625;51.212;5.952;2022-08-18T14:39:38;28.08;50.37
72591;SHT31;60625;51.212;5.952;2022-08-18T14:44:39;27.93;50.60
72591;SHT31;60625;51.212;5.952;2022-08-18T14:49:40;28.10;50.60
72591;SHT31;60625;51.212;5.952;2022-08-18T14:54:42;28.41;49.27
72591;SHT31;60625;51.212;5.952;2022-08-18T14:59:43;28.56;49.03
72591;SHT31;60625;51.212;5.952;2022-08-18T15:04:43;28.62;48.29
72591;SHT31;60625;51.212;5.952;2022-08-18T15:09:44;28.34;48.23
72591;SHT31;60625;51.212;5.952;2022-08-18T15:14:45;28.17;48.51
72591;SHT31;60625;51.212;5.952;2022-08-18T15:19:46;28.27;48.53
72591;SHT31;60625;51.212;5.952;2022-08-18T15:24:48;28.14;48.53
72591;SHT31;60625;51.212;5.952;2022-08-18T15:30:11;28.25;48.04
72591;SHT31;60625;51.212;5.952;2022-08-18T15:35:17;28.35;48.67
72591;SHT31;60625;51.212;5.952;2022-08-18T15:40:20;28.40;48.71
72591;SHT31;60625;51.212;5.952;2022-08-18T15:45:28;28.22;48.73
72591;SHT31;60625;51.212;5.952;2022-08-18T15:50:32;28.05;49.09
72591;SHT31;60625;51.212;5.952;2022-08-18T15:55:33;28.09;49.15
72591;SHT31;60625;51.212;5.952;2022-08-18T16:00:42;28.11;48.81
72591;SHT31;60625;51.212;5.952;2022-08-18T16:05:50;27.98;49.03
72591;SHT31;60625;51.212;5.952;2022-08-18T16:10:54;28.04;48.92
72591;SHT31;60625;51.212;5.952;2022-08-18T16:15:55;28.05;49.10
72591;SHT31;60625;51.212;5.952;2022-08-18T16:21:01;28.13;49.38
72591;SHT31;60625;51.212;5.952;2022-08-18T16:26:10;28.34;49.15
72591;SHT31;60625;51.212;5.952;2022-08-18T16:31:14;28.50;48.61
72591;SHT31;60625;51.212;5.952;2022-08-18T16:36:15;28.51;48.22
72591;SHT31;60625;51.212;5.952;2022-08-18T16:41:17;28.62;48.31
72591;SHT31;60625;51.212;5.952;2022-08-18T16:46:19;28.77;47.96
72591;SHT31;60625;51.212;5.952;2022-08-18T16:51:25;28.76;47.42
72591;SHT31;60625;51.212;5.952;2022-08-18T16:56:28;28.67;46.92
72591;SHT31;60625;51.212;5.952;2022-08-18T17:01:33;28.54;46.96
72591;SHT31;60625;51.212;5.952;2022-08-18T17:06:54;28.37;47.24
72591;SHT31;60625;51.212;5.952;2022-08-18T17:11:56;28.12;47.38
72591;SHT31;60625;51.212;5.952;2022-08-18T17:16:57;27.91;47.74
72591;SHT31;60625;51.212;5.952;2022-08-18T17:22:00;27.69;48.23
72591;SHT31;60625;51.212;5.952;2022-08-18T17:27:14;27.54;48.47
72591;SHT31;60625;51.212;5.952;2022-08-18T17:37:41;27.31;49.27
72591;SHT31;60625;51.212;5.952;2022-08-18T17:42:51;27.24;49.17
72591;SHT31;60625;51.212;5.952;2022-08-18T17:47:56;27.19;49.40
72591;SHT31;60625;51.212;5.952;2022-08-18T17:53:02;27.03;49.07
72591;SHT31;60625;51.212;5.952;2022-08-18T17:58:20;26.89;49.13
72591;SHT31;60625;51.212;5.952;2022-08-18T18:03:42;26.81;49.46
72591;SHT31;60625;51.212;5.952;2022-08-18T18:14:33;26.55;51.08
72591;SHT31;60625;51.212;5.952;2022-08-18T18:19:38;26.44;51.64
72591;SHT31;60625;51.212;5.952;2022-08-18T18:24:46;26.31;52.15
72591;SHT31;60625;51.212;5.952;2022-08-18T18:29:56;26.17;52.55
72591;SHT31;60625;51.212;5.952;2022-08-18T18:35:22;26.05;53.48
72591;SHT31;60625;51.212;5.952;2022-08-18T18:40:53;25.94;53.37
72591;SHT31;60625;51.212;5.952;2022-08-18T18:46:17;25.77;54.46
72591;SHT31;60625;51.212;5.952;2022-08-18T18:51:44;25.58;55.67
72591;SHT31;60625;51.212;5.952;2022-08-18T18:57:06;25.39;56.06
72591;SHT31;60625;51.212;5.952;2022-08-18T19:02:26;25.24;56.44
72591;SHT31;60625;51.212;5.952;2022-08-18T19:07:42;25.14;56.38
72591;SHT31;60625;51.212;5.952;2022-08-18T19:13:24;24.97;57.01
72591;SHT31;60625;51.212;5.952;2022-08-18T19:18:32;24.84;57.24
72591;SHT31;60625;51.212;5.952;2022-08-18T19:23:45;24.74;57.90
72591;SHT31;60625;51.212;5.952;2022-08-18T19:28:54;24.61;58.32
72591;SHT31;60625;51.212;5.952;2022-08-18T19:34:17;24.54;58.55
72591;SHT31;60625;51.212;5.952;2022-08-18T20:17:23;23.59;61.63
72591;SHT31;60625;51.212;5.952;2022-08-18T20:27:32;23.38;61.90
72591;SHT31;60625;51.212;5.952;2022-08-18T20:32:41;23.31;62.15
72591;SHT31;60625;51.212;5.952;2022-08-18T20:37:42;23.19;62.62
72591;SHT31;60625;51.212;5.952;2022-08-18T20:42:44;23.00;63.22
72591;SHT31;60625;51.212;5.952;2022-08-18T20:47:49;22.89;63.56
72591;SHT31;60625;51.212;5.952;2022-08-18T21:04:12;23.04;63.45
72591;SHT31;60625;51.212;5.952;2022-08-18T21:09:15;23.06;63.58
72591;SHT31;60625;51.212;5.952;2022-08-18T21:14:27;23.05;63.56
72591;SHT31;60625;51.212;5.952;2022-08-18T21:19:29;22.93;63.97
72591;SHT31;60625;51.212;5.952;2022-08-18T21:24:34;22.63;64.86
72591;SHT31;60625;51.212;5.952;2022-08-18T21:29:43;22.17;65.43
72591;SHT31;60625;51.212;5.952;2022-08-18T21:34:46;22.02;66.21
72591;SHT31;60625;51.212;5.952;2022-08-18T21:39:52;21.94;66.67
72591;SHT31;60625;51.212;5.952;2022-08-18T21:44:57;21.91;67.18
72591;SHT31;60625;51.212;5.952;2022-08-18T21:50:20;22.05;66.89
72591;SHT31;60625;51.212;5.952;2022-08-18T21:55:40;22.19;66.60
72591;SHT31;60625;51.212;5.952;2022-08-18T22:11:33;21.41;68.10
72591;SHT31;60625;51.212;5.952;2022-08-18T22:22:43;21.42;68.61
72591;SHT31;60625;51.212;5.952;2022-08-18T22:28:03;21.49;68.65
72591;SHT31;60625;51.212;5.952;2022-08-18T22:33:03;21.40;68.95
72591;SHT31;60625;51.212;5.952;2022-08-18T22:38:04;21.31;69.22
72591;SHT31;60625;51.212;5.952;2022-08-18T22:43:05;21.19;69.61
72591;SHT31;60625;51.212;5.952;2022-08-18T22:48:05;21.06;69.94
72591;SHT31;60625;51.212;5.952;2022-08-18T22:53:06;21.05;70.00
72591;SHT31;60625;51.212;5.952;2022-08-18T22:58:07;21.14;69.97
72591;SHT31;60625;51.212;5.952;2022-08-18T23:03:08;21.19;69.94
72591;SHT31;60625;51.212;5.952;2022-08-18T23:08:08;21.12;70.13
72591;SHT31;60625;51.212;5.952;2022-08-18T23:13:09;21.03;70.44
72591;SHT31;60625;51.212;5.952;2022-08-18T23:18:10;20.94;70.83
72591;SHT31;60625;51.212;5.952;2022-08-18T23:23:11;20.93;71.04
72591;SHT31;60625;51.212;5.952;2022-08-18T23:28:11;20.96;71.09
72591;SHT31;60625;51.212;5.952;2022-08-18T23:33:12;21.03;71.02
72591;SHT31;60625;51.212;5.952;2022-08-18T23:38:15;21.04;71.14
72591;SHT31;60625;51.212;5.952;2022-08-18T23:43:17;21.00;71.29
72591;SHT31;60625;51.212;5.952;2022-08-18T23:48:22;20.98;71.40
72591;SHT31;60625;51.212;5.952;2022-08-18T23:53:22;20.97;71.53
72591;SHT31;60625;51.212;5.952;2022-08-18T23:58:23;21.00;71.54
